Terminal Aerodrome Forecast
Issued by NWS

Home | Current Version | Previous Version | Text Only | Print | Product List | Glossary On
Versions: 1 2 3 4 5 6 7 8 9 10 11 12 13 14 15 16 17 18 19 20
000
FTUS43 KFGF 201700
TAFTVF
TAF
KTVF 201720Z 2018/2118 VRB25KT 5SM SHRA BKN025
     FM202000 32015G25KT P6SM SKC
     FM210100 32008KT P6SM SKC
     FM211200 32008KT P6SM BKN025
      AMD LTD TO CLD VIS AND WIND=

USA.gov is the U.S. government's official web portal to all federal, state and local government web resources and services.